Maximus — LK5607 — position and weather

sailwx.info

Track history (hours):
 
Tides and Currents Weather Stations Pressure Air Temp Water Temp Dewpoint Dewpoint Depression Visibility Wind Speed Wind Dir Waves Ship Positions

Maximus

Last reported at 2017-Nov-16 09:06 UTC. Time now 2017-Dec-12 02:50 UTC.
Position N 67°49' E 014°43'.
Warning: this ship's position is 25 days out of date.

Length 14 m.

Type: Diving. MMSI: 257069840.

Date/timePositionNaut miles runAvg speedWind from/ knotsBaromVisibWave heightAir tempDewpointWater temp
2017-Nov-16 09:06N 67°49' E 014°43'0 0.0
2017-Nov-16 09:00N 67°49' E 014°43'0 0.0
2017-Nov-16 08:27N 67°49' E 014°43'0 0.0
2017-Nov-16 07:59N 67°49' E 014°43'2 4.3
2017-Nov-16 07:28N 67°50' E 014°47'0 0.0
2017-Nov-15 16:51N 67°50' E 014°47'0 0.9
2017-Nov-15 16:28N 67°51' E 014°48'0 0.0
2017-Nov-15 15:58N 67°51' E 014°48'0 0.0
2017-Nov-15 15:28N 67°51' E 014°48'0 0.0
2017-Nov-15 14:58N 67°51' E 014°48'0 0.0
2017-Nov-15 14:28N 67°51' E 014°48'1 0.4
2017-Nov-15 12:25N 67°50' E 014°46'2 4.2
2017-Nov-15 11:59N 67°49' E 014°43'1 1.0
2017-Nov-15 11:26N 67°48' E 014°44'0 0.0
2017-Nov-15 10:59N 67°48' E 014°44'0 0.0
2017-Nov-15 10:20N 67°48' E 014°44'0 0.0
2017-Nov-15 09:59N 67°48' E 014°44'0 0.0
2017-Nov-15 09:29N 67°48' E 014°44'0 0.0
2017-Nov-15 08:55N 67°48' E 014°44'0 0.0
2017-Nov-15 08:25N 67°48' E 014°44'0 0.0
2017-Nov-15 07:58N 67°48' E 014°44'0 0.1
2017-Nov-15 07:30N 67°48' E 014°44'2 0.1
2017-Nov-14 14:28N 67°50' E 014°47'0 0.0
2017-Nov-14 13:50N 67°50' E 014°47'0 0.0
2017-Nov-14 13:29N 67°50' E 014°47'0 0.4
2017-Nov-14 12:54N 67°50' E 014°47'0 0.1
2017-Nov-14 12:17N 67°50' E 014°47'0 0.0
2017-Nov-14 11:47N 67°50' E 014°47'0 0.0
2017-Nov-14 11:30N 67°50' E 014°47'0 0.0
2017-Nov-14 10:48N 67°50' E 014°47'1 1.9
2017-Nov-14 10:28N 67°51' E 014°48'0 0.1
2017-Nov-14 07:56N 67°51' E 014°48'0 0.0
2017-Nov-14 07:16N 67°51' E 014°48'  
2017-Nov-10 09:41N 67°50' E 014°46'1 6.1
2017-Nov-10 09:30N 67°49' E 014°44'1 1.7
2017-Nov-10 08:43N 67°50' E 014°47'0 0.0
2017-Nov-10 08:19N 67°50' E 014°47'0 0.0
2017-Nov-10 07:55N 67°50' E 014°47'0 0.0
2017-Nov-10 07:28N 67°50' E 014°47'0 0.0
2017-Nov-09 14:22N 67°50' E 014°47'0 0.6
2017-Nov-09 13:33N 67°51' E 014°47'0 0.2
2017-Nov-09 13:05N 67°51' E 014°47'0 0.1
2017-Nov-09 10:04N 67°50' E 014°47'0 0.8
2017-Nov-09 09:54N 67°50' E 014°47'0 0.0
2017-Nov-09 09:24N 67°50' E 014°47'0 0.0
2017-Nov-09 07:55N 67°50' E 014°47'0 0.1
2017-Nov-09 07:30N 67°50' E 014°47'0 0.1
2017-Nov-09 06:59N 67°50' E 014°47'0 0.0
2017-Nov-08 17:30N 67°50' E 014°47'0 0.0
2017-Nov-08 16:48N 67°50' E 014°47'0 0.0
2017-Nov-08 16:27N 67°50' E 014°47'0 0.0
2017-Nov-08 15:54N 67°50' E 014°47'1 1.3
2017-Nov-08 15:30N 67°51' E 014°47'1 1.2
2017-Nov-08 14:57N 67°51' E 014°48'0 0.3
2017-Nov-08 14:23N 67°51' E 014°48'0 0.0
2017-Nov-08 12:26N 67°51' E 014°48'0 0.0
2017-Nov-08 11:44N 67°51' E 014°48'0 0.0
2017-Nov-08 09:04N 67°51' E 014°48'0 0.0
2017-Nov-08 09:00N 67°51' E 014°48'0 0.0
2017-Nov-08 07:57N 67°51' E 014°48'0 0.1
2017-Nov-08 07:15N 67°51' E 014°48'1 0.7
2017-Nov-08 05:51N 67°50' E 014°47'0 0.0
2017-Nov-08 04:51N 67°50' E 014°47'0 0.0
2017-Nov-07 14:57N 67°50' E 014°47'1 2.9
2017-Nov-07 14:30N 67°52' E 014°48'0 0.0
2017-Nov-07 12:53N 67°52' E 014°48'0 0.0
2017-Nov-07 12:20N 67°52' E 014°48'0 0.0
2017-Nov-07 11:38N 67°52' E 014°48'0 0.0
2017-Nov-07 11:29N 67°52' E 014°48'0 0.0
2017-Nov-07 10:59N 67°52' E 014°48'0 0.1
2017-Nov-07 09:35N 67°51' E 014°47'0 0.0
2017-Nov-07 09:18N 67°51' E 014°47'0 0.0
2017-Nov-07 08:54N 67°51' E 014°47'0 0.0
2017-Nov-07 08:24N 67°51' E 014°47'1 2.9
2017-Nov-07 08:00N 67°50' E 014°47'  
Track history (hours):
 
Tides and Currents Weather Stations Pressure Air Temp Water Temp Dewpoint Dewpoint Depression Visibility Wind Speed Wind Dir Waves Ship Positions

Maximus

Last reported at 2017-Nov-16 09:06 UTC. Time now 2017-Dec-12 02:50 UTC.
Position N 67°49' E 014°43'.
Warning: this ship's position is 25 days out of date.

Length 14 m.

Type: Diving. MMSI: 257069840.

Date/timePositionNaut miles runAvg speedWind from/ knotsBaromVisibWave heightAir tempDewpointWater temp
2017-Nov-16 09:06N 67°49' E 014°43'0 0.0
2017-Nov-16 09:00N 67°49' E 014°43'0 0.0
2017-Nov-16 08:27N 67°49' E 014°43'0 0.0
2017-Nov-16 07:59N 67°49' E 014°43'2 4.3
2017-Nov-16 07:28N 67°50' E 014°47'0 0.0
2017-Nov-15 16:51N 67°50' E 014°47'0 0.9
2017-Nov-15 16:28N 67°51' E 014°48'0 0.0
2017-Nov-15 15:58N 67°51' E 014°48'0 0.0
2017-Nov-15 15:28N 67°51' E 014°48'0 0.0
2017-Nov-15 14:58N 67°51' E 014°48'0 0.0
2017-Nov-15 14:28N 67°51' E 014°48'1 0.4
2017-Nov-15 12:25N 67°50' E 014°46'2 4.2
2017-Nov-15 11:59N 67°49' E 014°43'1 1.0
2017-Nov-15 11:26N 67°48' E 014°44'0 0.0
2017-Nov-15 10:59N 67°48' E 014°44'0 0.0
2017-Nov-15 10:20N 67°48' E 014°44'0 0.0
2017-Nov-15 09:59N 67°48' E 014°44'0 0.0
2017-Nov-15 09:29N 67°48' E 014°44'0 0.0
2017-Nov-15 08:55N 67°48' E 014°44'0 0.0
2017-Nov-15 08:25N 67°48' E 014°44'0 0.0
2017-Nov-15 07:58N 67°48' E 014°44'0 0.1
2017-Nov-15 07:30N 67°48' E 014°44'2 0.1
2017-Nov-14 14:28N 67°50' E 014°47'0 0.0
2017-Nov-14 13:50N 67°50' E 014°47'0 0.0
2017-Nov-14 13:29N 67°50' E 014°47'0 0.4
2017-Nov-14 12:54N 67°50' E 014°47'0 0.1
2017-Nov-14 12:17N 67°50' E 014°47'0 0.0
2017-Nov-14 11:47N 67°50' E 014°47'0 0.0
2017-Nov-14 11:30N 67°50' E 014°47'0 0.0
2017-Nov-14 10:48N 67°50' E 014°47'1 1.9
2017-Nov-14 10:28N 67°51' E 014°48'0 0.1
2017-Nov-14 07:56N 67°51' E 014°48'0 0.0
2017-Nov-14 07:16N 67°51' E 014°48'  
2017-Nov-10 09:41N 67°50' E 014°46'1 6.1
2017-Nov-10 09:30N 67°49' E 014°44'1 1.7
2017-Nov-10 08:43N 67°50' E 014°47'0 0.0
2017-Nov-10 08:19N 67°50' E 014°47'0 0.0
2017-Nov-10 07:55N 67°50' E 014°47'0 0.0
2017-Nov-10 07:28N 67°50' E 014°47'0 0.0
2017-Nov-09 14:22N 67°50' E 014°47'0 0.6
2017-Nov-09 13:33N 67°51' E 014°47'0 0.2
2017-Nov-09 13:05N 67°51' E 014°47'0 0.1
2017-Nov-09 10:04N 67°50' E 014°47'0 0.8
2017-Nov-09 09:54N 67°50' E 014°47'0 0.0
2017-Nov-09 09:24N 67°50' E 014°47'0 0.0
2017-Nov-09 07:55N 67°50' E 014°47'0 0.1
2017-Nov-09 07:30N 67°50' E 014°47'0 0.1
2017-Nov-09 06:59N 67°50' E 014°47'0 0.0
2017-Nov-08 17:30N 67°50' E 014°47'0 0.0
2017-Nov-08 16:48N 67°50' E 014°47'0 0.0
2017-Nov-08 16:27N 67°50' E 014°47'0 0.0
2017-Nov-08 15:54N 67°50' E 014°47'1 1.3
2017-Nov-08 15:30N 67°51' E 014°47'1 1.2
2017-Nov-08 14:57N 67°51' E 014°48'0 0.3
2017-Nov-08 14:23N 67°51' E 014°48'0 0.0
2017-Nov-08 12:26N 67°51' E 014°48'0 0.0
2017-Nov-08 11:44N 67°51' E 014°48'0 0.0
2017-Nov-08 09:04N 67°51' E 014°48'0 0.0
2017-Nov-08 09:00N 67°51' E 014°48'0 0.0
2017-Nov-08 07:57N 67°51' E 014°48'0 0.1
2017-Nov-08 07:15N 67°51' E 014°48'1 0.7
2017-Nov-08 05:51N 67°50' E 014°47'0 0.0
2017-Nov-08 04:51N 67°50' E 014°47'0 0.0
2017-Nov-07 14:57N 67°50' E 014°47'1 2.9
2017-Nov-07 14:30N 67°52' E 014°48'0 0.0
2017-Nov-07 12:53N 67°52' E 014°48'0 0.0
2017-Nov-07 12:20N 67°52' E 014°48'0 0.0
2017-Nov-07 11:38N 67°52' E 014°48'0 0.0
2017-Nov-07 11:29N 67°52' E 014°48'0 0.0
2017-Nov-07 10:59N 67°52' E 014°48'0 0.1
2017-Nov-07 09:35N 67°51' E 014°47'0 0.0
2017-Nov-07 09:18N 67°51' E 014°47'0 0.0
2017-Nov-07 08:54N 67°51' E 014°47'0 0.0
2017-Nov-07 08:24N 67°51' E 014°47'1 2.9
2017-Nov-07 08:00N 67°50' E 014°47'  

Dump ship's entire track history